Ana Sayfa
METAR-TAF:

METAR-TAF

Havaalanları :

Carrollton, Georgia, Amerika Birleşik Devletleri

Enlem: 33-37-54N, Boylam: 085-09-08W, yükseklik: 354 m

Güncel hava durumu gözlemi

Rapor saat 17:35 UTC de 30 dakika önce yapıldı.
Rüzgar kuzeydoğudan 5 kt
Sıcaklık 32°C
Nem 23%
Basınç 1018 hPa
Görüş mesafesi: 16.1 km
Açık gökyüzü

METAR: KCTJ 251735Z AUTO 04005KT 10SM CLR 32/08 A3005 RMK AO2 T03180075

Saat: 14:05 (18:05 UTC)


TAF: eksik

4.000'den fazla havaalanı için hava durumu gözlemleri ve tahminleri (METAR ve TAF raporları).

Kullanılabilir istasyonlar harita üzerinde sarı ve kırmızı noktalarla gösterilir.

İstasyonun adını görmek için fareyi noktanın üzerinde gezdirin.

Sonrasında hava gözlem ve tahminlerini görmek için tıklayın.

Haritayı değiştirmek için: yaklaştırmak için siyah artı işaretli yeşil düğmeye ve uzaklaştırmak için de eksi işaretli düğmeye hızla tıklayın; bitişik haritalar için yeşil okları kullanın.


METAR-TAF: